createdAt,value
2023-05-06T00:00:13.987Z,101020.14
2023-05-06T00:02:43.791Z,101024.52
2023-05-06T00:05:11.095Z,101030.30
2023-05-06T00:07:39.243Z,101032.13
2023-05-06T00:10:06.262Z,101031.62
2023-05-06T00:12:33.246Z,101032.10
2023-05-06T00:15:00.149Z,101034.64
2023-05-06T00:17:26.965Z,101035.55
2023-05-06T00:19:55.796Z,101038.70
2023-05-06T00:22:22.836Z,101042.71
2023-05-06T00:24:49.733Z,101043.29
2023-05-06T00:27:16.570Z,101047.86
2023-05-06T00:29:43.439Z,101053.58
2023-05-06T00:32:10.606Z,101056.16
2023-05-06T00:34:37.514Z,101057.14
2023-05-06T00:37:04.204Z,101056.29
2023-05-06T00:39:31.032Z,101053.13
2023-05-06T00:42:01.699Z,101047.45
2023-05-06T00:44:29.437Z,101046.89
2023-05-06T00:46:57.236Z,101044.36
2023-05-06T00:49:24.107Z,101044.12
2023-05-06T00:51:51.798Z,101044.27
2023-05-06T00:54:18.663Z,101048.50
2023-05-06T00:56:45.519Z,101053.95
2023-05-06T00:59:12.590Z,101056.05
2023-05-06T01:01:40.105Z,101048.90
2023-05-06T01:04:08.308Z,101044.10
2023-05-06T01:06:44.374Z,101040.38
2023-05-06T01:09:19.458Z,101042.34
2023-05-06T01:11:57.351Z,101044.48
2023-05-06T01:14:49.443Z,101042.35
2023-05-06T01:17:18.113Z,101046.05
2023-05-06T01:19:52.901Z,101051.03
2023-05-06T01:22:19.746Z,101047.76
2023-05-06T01:24:46.619Z,101046.48
2023-05-06T01:27:16.264Z,101044.97
2023-05-06T01:29:44.881Z,101049.45
2023-05-06T01:32:17.996Z,101053.00
2023-05-06T01:35:23.667Z,101056.86
2023-05-06T01:38:13.518Z,101056.74
2023-05-06T01:40:40.962Z,101046.98
2023-05-06T01:43:07.743Z,101044.13
2023-05-06T01:45:35.315Z,101044.14
2023-05-06T01:48:03.880Z,101047.58
2023-05-06T01:50:30.717Z,101049.80
2023-05-06T01:53:01.548Z,101054.66
2023-05-06T01:55:28.916Z,101052.20
2023-05-06T01:57:58.332Z,101051.79
2023-05-06T02:00:25.888Z,101060.56
2023-05-06T02:02:53.047Z,101070.57
2023-05-06T02:05:20.158Z,101076.69
2023-05-06T02:07:47.855Z,101076.40
2023-05-06T02:10:14.817Z,101074.10
2023-05-06T02:12:46.349Z,101070.40
2023-05-06T02:15:13.296Z,101068.80
2023-05-06T02:17:40.273Z,101068.73
2023-05-06T02:20:09.542Z,101069.60
2023-05-06T02:22:36.661Z,101072.19
2023-05-06T02:25:03.910Z,101076.95
2023-05-06T02:27:30.967Z,101079.10
2023-05-06T02:29:57.799Z,101081.33
2023-05-06T02:32:24.772Z,101076.14
2023-05-06T02:34:54.144Z,101077.08
2023-05-06T02:40:16.090Z,101083.50
2023-05-06T02:42:43.641Z,101085.02
2023-05-06T02:45:12.946Z,101082.10
2023-05-06T02:47:40.497Z,101078.53
2023-05-06T02:50:07.551Z,101081.27
2023-05-06T02:52:35.941Z,101082.53
2023-05-06T02:55:02.814Z,101085.88
2023-05-06T02:57:30.855Z,101083.05
2023-05-06T02:59:57.876Z,101084.73
2023-05-06T03:02:24.796Z,101086.67
2023-05-06T03:04:51.791Z,101087.75
2023-05-06T03:07:19.352Z,101092.73
2023-05-06T03:09:46.344Z,101095.66
2023-05-06T03:12:13.597Z,101102.59
2023-05-06T03:14:40.395Z,101108.95
2023-05-06T03:17:07.142Z,101115.08
2023-05-06T03:19:36.024Z,101110.54
2023-05-06T03:22:03.183Z,101114.80
2023-05-06T03:24:31.124Z,101117.27
2023-05-06T03:26:58.677Z,101119.13
2023-05-06T03:29:25.652Z,101124.81
2023-05-06T03:31:56.803Z,101133.67
2023-05-06T03:34:24.174Z,101136.77
2023-05-06T03:36:51.136Z,101139.50
2023-05-06T03:39:18.422Z,101138.40
2023-05-06T03:41:45.584Z,101143.77
2023-05-06T03:44:12.419Z,101146.08
2023-05-06T03:46:41.237Z,101147.52
2023-05-06T03:49:08.396Z,101146.71
2023-05-06T03:51:35.619Z,101149.84
2023-05-06T03:54:03.097Z,101153.36
2023-05-06T03:56:30.947Z,101155.11
2023-05-06T03:58:58.569Z,101160.47
2023-05-06T04:01:26.116Z,101159.34
2023-05-06T04:03:54.156Z,101162.98
2023-05-06T04:06:21.512Z,101164.05
2023-05-06T04:08:51.063Z,101166.86
2023-05-06T04:11:18.281Z,101165.20
2023-05-06T04:13:46.419Z,101164.52
2023-05-06T04:16:15.557Z,101169.23
2023-05-06T04:18:45.646Z,101165.04
2023-05-06T04:21:14.899Z,101164.50
2023-05-06T04:23:43.936Z,101167.34
2023-05-06T04:26:12.932Z,101168.61
2023-05-06T04:28:41.253Z,101162.92
2023-05-06T04:31:08.618Z,101167.42
2023-05-06T04:33:42.742Z,101166.73
2023-05-06T04:36:12.723Z,101170.09
2023-05-06T04:38:42.901Z,101173.03
2023-05-06T04:41:10.734Z,101174.05
2023-05-06T04:43:37.815Z,101174.63
2023-05-06T04:46:10.171Z,101180.83
2023-05-06T04:48:38.370Z,101175.96
2023-05-06T04:51:05.812Z,101174.72
2023-05-06T04:53:33.136Z,101178.84
2023-05-06T04:56:00.357Z,101183.30
2023-05-06T04:58:27.536Z,101185.54
2023-05-06T05:00:56.823Z,101186.06
2023-05-06T05:03:24.752Z,101191.76
2023-05-06T05:05:53.066Z,101191.47
2023-05-06T05:08:20.903Z,101193.10
2023-05-06T05:10:48.771Z,101190.65
2023-05-06T05:13:19.060Z,101187.52
2023-05-06T05:15:46.510Z,101184.73
2023-05-06T05:18:14.215Z,101181.60
2023-05-06T05:20:41.564Z,101183.61
2023-05-06T05:23:09.075Z,101180.27
2023-05-06T05:25:37.670Z,101180.56
2023-05-06T05:28:04.527Z,101185.04
2023-05-06T05:30:32.061Z,101182.16
2023-05-06T05:32:59.252Z,101182.39
2023-05-06T05:35:27.009Z,101191.04
2023-05-06T05:37:54.864Z,101189.05
2023-05-06T05:40:22.050Z,101186.20
2023-05-06T05:42:51.713Z,101185.91
2023-05-06T05:45:24.105Z,101184.20
2023-05-06T05:47:51.028Z,101188.83
2023-05-06T05:50:18.172Z,101189.92
2023-05-06T05:52:45.587Z,101191.33
2023-05-06T05:55:12.857Z,101187.63
2023-05-06T05:57:41.632Z,101190.00
2023-05-06T06:00:10.159Z,101188.41
2023-05-06T06:02:44.314Z,101189.39
2023-05-06T06:05:12.147Z,101191.48
2023-05-06T06:07:39.441Z,101190.13
2023-05-06T06:10:06.901Z,101191.33
2023-05-06T06:12:34.423Z,101193.79
2023-05-06T06:15:01.861Z,101195.77
2023-05-06T06:17:30.779Z,101193.81
2023-05-06T06:19:58.620Z,101200.95
2023-05-06T06:22:25.960Z,101201.39
2023-05-06T06:24:54.257Z,101201.46
2023-05-06T06:27:21.242Z,101202.02
2023-05-06T06:29:49.315Z,101201.00
2023-05-06T06:32:16.348Z,101199.43
2023-05-06T06:34:43.223Z,101207.70
2023-05-06T06:37:11.669Z,101211.96
2023-05-06T06:39:38.945Z,101212.47
2023-05-06T06:42:08.896Z,101211.64
2023-05-06T06:44:38.865Z,101216.88
2023-05-06T06:47:05.864Z,101219.92
2023-05-06T06:49:33.010Z,101223.59
2023-05-06T06:51:59.885Z,101214.41
2023-05-06T06:54:26.813Z,101217.56
2023-05-06T06:56:55.731Z,101221.71
2023-05-06T06:59:22.865Z,101218.76
2023-05-06T07:01:50.465Z,101221.15
2023-05-06T07:04:17.401Z,101219.73
2023-05-06T07:06:44.221Z,101227.20
2023-05-06T07:09:11.805Z,101228.57
2023-05-06T07:11:38.768Z,101232.02
2023-05-06T07:14:05.511Z,101229.84
2023-05-06T07:16:33.316Z,101225.29
2023-05-06T07:19:00.934Z,101232.12
2023-05-06T07:21:27.777Z,101230.18
2023-05-06T07:23:54.613Z,101231.96
2023-05-06T07:26:21.536Z,101232.02
2023-05-06T07:28:49.579Z,101242.80
2023-05-06T07:31:20.292Z,101236.81
2023-05-06T07:33:47.552Z,101237.34
2023-05-06T07:36:14.380Z,101239.52
2023-05-06T07:38:41.642Z,101241.98
2023-05-06T07:41:08.411Z,101242.23
2023-05-06T07:43:35.751Z,101236.94
2023-05-06T07:46:03.065Z,101237.05
2023-05-06T07:48:30.185Z,101231.20
2023-05-06T07:50:57.225Z,101237.02
2023-05-06T07:53:24.126Z,101236.95
2023-05-06T07:55:52.075Z,101234.36
2023-05-06T07:58:19.449Z,101244.11
2023-05-06T08:00:47.060Z,101245.85
2023-05-06T08:03:14.194Z,101245.98
2023-05-06T08:05:41.289Z,101245.41
2023-05-06T08:08:08.200Z,101245.62
2023-05-06T08:10:35.174Z,101248.01
2023-05-06T08:13:02.751Z,101242.79
2023-05-06T08:15:29.729Z,101245.00
2023-05-06T08:17:58.769Z,101243.14
2023-05-06T08:20:27.242Z,101249.72
2023-05-06T08:22:54.686Z,101241.33
2023-05-06T08:25:21.490Z,101249.27
2023-05-06T08:27:48.326Z,101250.08
2023-05-06T08:30:15.372Z,101250.50
2023-05-06T08:32:42.879Z,101248.85
2023-05-06T08:35:09.864Z,101247.20
2023-05-06T08:37:37.008Z,101249.82
2023-05-06T08:40:04.815Z,101249.20
2023-05-06T08:42:31.994Z,101245.41
2023-05-06T08:44:59.332Z,101245.96
2023-05-06T08:47:26.187Z,101248.20
2023-05-06T08:49:53.132Z,101251.55
2023-05-06T08:52:21.764Z,101248.34
2023-05-06T08:54:50.859Z,101248.08
2023-05-06T08:57:19.721Z,101257.15
2023-05-06T08:59:46.651Z,101255.64
2023-05-06T09:02:13.536Z,101259.39
2023-05-06T09:04:40.348Z,101256.87
2023-05-06T09:07:07.287Z,101253.11
2023-05-06T09:09:34.109Z,101259.52
2023-05-06T09:12:01.274Z,101257.53
2023-05-06T09:14:28.459Z,101265.57
2023-05-06T09:16:55.321Z,101265.38
2023-05-06T09:19:24.096Z,101262.11
2023-05-06T09:21:50.951Z,101258.95
2023-05-06T09:24:17.833Z,101265.29
2023-05-06T09:26:45.273Z,101259.34
2023-05-06T09:29:12.369Z,101260.47
2023-05-06T09:31:40.978Z,101259.98
2023-05-06T09:34:08.176Z,101261.56
2023-05-06T09:36:36.627Z,101257.26
2023-05-06T09:39:04.203Z,101256.08
2023-05-06T09:41:31.759Z,101256.71
2023-05-06T09:43:58.851Z,101253.83
2023-05-06T09:46:29.620Z,101253.73
2023-05-06T09:48:57.661Z,101252.19
2023-05-06T09:51:25.700Z,101247.42
2023-05-06T09:53:52.561Z,101246.64
2023-05-06T09:56:19.508Z,101247.84
2023-05-06T09:58:47.071Z,101247.03
2023-05-06T10:01:22.213Z,101247.08
2023-05-06T10:03:57.336Z,101247.02
2023-05-06T10:06:24.377Z,101246.89
2023-05-06T10:08:52.169Z,101240.63
2023-05-06T10:11:19.795Z,101242.46
2023-05-06T10:13:47.149Z,101242.64
2023-05-06T10:16:15.838Z,101241.25
2023-05-06T10:18:43.191Z,101244.52
2023-05-06T10:21:16.766Z,101240.56
2023-05-06T10:23:48.750Z,101241.54
2023-05-06T10:26:16.572Z,101233.83
2023-05-06T10:28:43.629Z,101241.86
2023-05-06T10:31:12.584Z,101253.38
2023-05-06T10:33:45.563Z,101255.57
2023-05-06T10:36:20.901Z,101248.30
2023-05-06T10:38:56.030Z,101244.09
2023-05-06T10:41:23.721Z,101242.38
2023-05-06T10:43:56.541Z,101239.75
2023-05-06T10:46:25.715Z,101231.17
2023-05-06T10:49:11.620Z,101241.18
2023-05-06T10:51:46.796Z,101236.02
2023-05-06T10:54:19.814Z,101244.62
2023-05-06T10:56:50.200Z,101243.20
2023-05-06T10:59:21.539Z,101244.31
2023-05-06T11:01:57.047Z,101235.39
2023-05-06T11:04:24.347Z,101234.11
2023-05-06T11:06:52.524Z,101237.70
2023-05-06T11:09:23.176Z,101231.50
2023-05-06T11:12:01.704Z,101233.96
2023-05-06T11:14:35.236Z,101232.19
2023-05-06T11:17:06.713Z,101233.30
2023-05-06T11:19:37.752Z,101230.27
2023-05-06T11:22:05.755Z,101231.24
2023-05-06T11:24:41.885Z,101227.52
2023-05-06T11:27:09.230Z,101225.66
2023-05-06T11:29:36.794Z,101229.85
2023-05-06T11:32:05.468Z,101229.39
2023-05-06T11:34:32.442Z,101226.75
2023-05-06T11:37:04.819Z,101225.90
2023-05-06T11:39:36.646Z,101219.59
2023-05-06T11:42:08.115Z,101222.27
2023-05-06T11:44:38.757Z,101221.59
2023-05-06T11:47:07.604Z,101226.01
2023-05-06T11:49:44.348Z,101229.35
2023-05-06T11:52:12.007Z,101220.95
2023-05-06T11:54:39.693Z,101221.58
2023-05-06T11:57:07.135Z,101216.79
2023-05-06T11:59:38.146Z,101215.70
2023-05-06T12:02:06.609Z,101218.48
2023-05-06T12:04:44.650Z,101219.91
2023-05-06T12:07:13.356Z,101219.71
2023-05-06T12:09:42.305Z,101223.53
2023-05-06T12:12:09.804Z,101219.96
2023-05-06T12:14:37.052Z,101217.84
2023-05-06T12:17:04.073Z,101215.78
2023-05-06T12:19:31.694Z,101213.52
2023-05-06T12:22:15.694Z,101203.50
2023-05-06T12:24:42.905Z,101213.53
2023-05-06T12:27:10.160Z,101207.22
2023-05-06T12:29:37.305Z,101209.39
2023-05-06T12:32:08.773Z,101209.64
2023-05-06T12:34:39.998Z,101211.77
2023-05-06T12:37:08.172Z,101213.09
2023-05-06T12:39:36.305Z,101213.58
2023-05-06T12:42:03.680Z,101209.45
2023-05-06T12:44:32.204Z,101208.65
2023-05-06T12:47:03.535Z,101209.35
2023-05-06T12:49:50.469Z,101207.56
2023-05-06T12:52:18.692Z,101206.27
2023-05-06T12:54:45.929Z,101207.71
2023-05-06T12:57:12.703Z,101212.86
2023-05-06T12:59:39.594Z,101213.17
2023-05-06T13:02:06.630Z,101215.53
2023-05-06T13:04:34.802Z,101218.02
2023-05-06T13:07:01.741Z,101216.94
2023-05-06T13:09:28.964Z,101213.35
2023-05-06T13:11:55.886Z,101213.77
2023-05-06T13:14:22.713Z,101209.52
2023-05-06T13:16:50.559Z,101209.61
2023-05-06T13:19:31.777Z,101209.95
2023-05-06T13:22:00.616Z,101210.09
2023-05-06T13:24:28.713Z,101213.71
2023-05-06T13:27:01.681Z,101215.94
2023-05-06T13:29:29.095Z,101216.98
2023-05-06T13:31:55.945Z,101217.27
2023-05-06T13:34:22.916Z,101215.86
2023-05-06T13:36:50.219Z,101214.48
2023-05-06T13:39:17.060Z,101222.16
2023-05-06T13:41:47.823Z,101218.11
2023-05-06T13:44:15.288Z,101218.64
2023-05-06T13:46:44.775Z,101221.05
2023-05-06T13:49:16.153Z,101225.70
2023-05-06T13:51:43.085Z,101227.70
2023-05-06T13:54:09.850Z,101225.98
2023-05-06T13:56:36.826Z,101225.42
2023-05-06T13:59:03.710Z,101226.02
2023-05-06T14:01:30.654Z,101228.94
2023-05-06T14:03:57.648Z,101230.70
2023-05-06T14:06:24.657Z,101230.84
2023-05-06T14:08:51.738Z,101233.07
2023-05-06T14:11:18.508Z,101234.73
2023-05-06T14:13:45.392Z,101231.17
2023-05-06T14:16:12.188Z,101232.23
2023-05-06T14:18:39.069Z,101236.80
2023-05-06T14:21:06.049Z,101238.43
2023-05-06T14:23:33.094Z,101236.73
2023-05-06T14:26:00.190Z,101235.98
2023-05-06T14:28:27.392Z,101232.98
2023-05-06T14:30:54.177Z,101235.02
2023-05-06T14:33:22.941Z,101237.48
2023-05-06T14:35:52.449Z,101234.72
2023-05-06T14:38:19.505Z,101236.36
2023-05-06T14:40:46.383Z,101238.45
2023-05-06T14:43:13.336Z,101239.45
2023-05-06T14:45:40.306Z,101241.00
2023-05-06T14:48:07.241Z,101242.05
2023-05-06T14:50:34.162Z,101248.61
2023-05-06T14:53:02.977Z,101247.08
2023-05-06T14:57:04.387Z,101243.92
2023-05-06T14:59:31.472Z,101247.23
2023-05-06T15:01:58.570Z,101248.95
2023-05-06T15:04:26.956Z,101246.36
2023-05-06T15:06:57.174Z,101256.42
2023-05-06T15:09:25.769Z,101256.34
2023-05-06T15:11:52.589Z,101254.69
2023-05-06T15:14:20.698Z,101254.40
2023-05-06T15:16:47.566Z,101253.23
2023-05-06T15:19:14.384Z,101255.22
2023-05-06T15:21:41.337Z,101257.89
2023-05-06T15:24:08.729Z,101254.30
2023-05-06T15:26:36.620Z,101253.30
2023-05-06T15:29:06.257Z,101251.75
2023-05-06T15:31:38.341Z,101258.39
2023-05-06T15:34:08.848Z,101254.30
2023-05-06T15:36:36.778Z,101256.40
2023-05-06T15:39:03.842Z,101256.16
2023-05-06T15:41:32.057Z,101264.10
2023-05-06T15:43:59.919Z,101261.20
2023-05-06T15:46:27.719Z,101260.89
2023-05-06T15:49:17.466Z,101264.11
2023-05-06T15:51:42.174Z,101265.91
2023-05-06T15:54:10.019Z,101266.91
2023-05-06T15:56:40.988Z,101266.61
2023-05-06T15:59:08.798Z,101270.61
2023-05-06T16:02:18.760Z,101268.60
2023-05-06T16:04:23.605Z,101266.83
2023-05-06T16:06:50.839Z,101265.55
2023-05-06T16:09:17.984Z,101263.02
2023-05-06T16:11:45.170Z,101265.55
2023-05-06T16:14:12.558Z,101265.61
2023-05-06T16:16:39.579Z,101269.58
2023-05-06T16:19:06.852Z,101270.95
2023-05-06T16:21:35.153Z,101269.27
2023-05-06T16:24:01.956Z,101270.13
2023-05-06T16:26:29.058Z,101272.89
2023-05-06T16:28:55.854Z,101283.54
2023-05-06T16:31:22.721Z,101288.77
2023-05-06T16:33:50.367Z,101287.10
2023-05-06T16:36:17.294Z,101294.56
2023-05-06T16:38:44.116Z,101296.39
2023-05-06T16:41:21.400Z,101299.70
2023-05-06T16:43:48.379Z,101305.52
2023-05-06T16:46:15.491Z,101305.90
2023-05-06T16:48:42.830Z,101307.69
2023-05-06T16:51:11.966Z,101320.30
2023-05-06T16:53:38.847Z,101325.70
2023-05-06T16:56:06.573Z,101330.79
2023-05-06T16:58:34.368Z,101336.50
2023-05-06T17:01:01.803Z,101344.70
2023-05-06T17:03:29.040Z,101348.86
2023-05-06T17:05:56.867Z,101349.26
2023-05-06T17:08:24.461Z,101352.44
2023-05-06T17:10:54.108Z,101361.17
2023-05-06T17:13:21.374Z,101360.17
2023-05-06T17:15:48.483Z,101369.98
2023-05-06T17:18:15.257Z,101372.14
2023-05-06T17:20:54.387Z,101376.22
2023-05-06T17:23:23.964Z,101383.13
2023-05-06T17:25:50.839Z,101387.73
2023-05-06T17:28:18.921Z,101386.94
2023-05-06T17:30:46.251Z,101396.71
2023-05-06T17:33:13.661Z,101405.05
2023-05-06T17:35:40.555Z,101409.95
2023-05-06T17:38:12.686Z,101412.88
2023-05-06T17:40:39.454Z,101416.60
2023-05-06T17:43:07.088Z,101416.36
2023-05-06T17:45:34.881Z,101421.76
2023-05-06T17:48:02.505Z,101428.37
2023-05-06T17:50:29.599Z,101436.56
2023-05-06T17:52:56.819Z,101440.70
2023-05-06T17:55:23.972Z,101445.86
2023-05-06T17:57:52.301Z,101446.84
2023-05-06T18:00:19.514Z,101449.25
2023-05-06T18:02:46.756Z,101451.19
2023-05-06T18:05:14.000Z,101456.04
2023-05-06T18:07:41.721Z,101458.20
2023-05-06T18:10:09.147Z,101455.40
2023-05-06T18:12:36.991Z,101459.40
2023-05-06T18:15:05.583Z,101463.52
2023-05-06T18:17:33.370Z,101466.75
2023-05-06T18:20:00.336Z,101464.61
2023-05-06T18:22:27.197Z,101468.91
2023-05-06T18:24:54.703Z,101470.38
2023-05-06T18:27:22.117Z,101472.67
2023-05-06T18:29:50.296Z,101469.84
2023-05-06T18:32:17.932Z,101475.62
2023-05-06T18:34:45.362Z,101473.17
2023-05-06T18:37:12.722Z,101472.73
2023-05-06T18:39:41.250Z,101479.48
2023-05-06T18:42:08.251Z,101482.51
2023-05-06T18:44:35.637Z,101489.39
2023-05-06T18:47:02.663Z,101489.46
2023-05-06T18:49:30.503Z,101491.13
2023-05-06T18:51:57.465Z,101495.60
2023-05-06T18:54:25.155Z,101492.09
2023-05-06T18:56:52.771Z,101493.11
2023-05-06T18:59:20.847Z,101496.08
2023-05-06T19:01:47.638Z,101505.60
2023-05-06T19:04:15.010Z,101509.75
2023-05-06T19:06:41.997Z,101514.96
2023-05-06T19:09:08.964Z,101517.61
2023-05-06T19:11:37.799Z,101516.58
2023-05-06T19:14:04.783Z,101516.32
2023-05-06T19:16:32.393Z,101516.57
2023-05-06T19:18:59.416Z,101518.48
2023-05-06T19:21:27.468Z,101519.86
2023-05-06T19:23:59.168Z,101522.77
2023-05-06T19:26:27.467Z,101524.70
2023-05-06T19:28:54.702Z,101523.38
2023-05-06T19:31:21.842Z,101521.52
2023-05-06T19:33:48.944Z,101521.30
2023-05-06T19:36:16.139Z,101525.07
2023-05-06T19:38:43.152Z,101532.27
2023-05-06T19:41:10.449Z,101534.91
2023-05-06T19:43:42.459Z,101545.13
2023-05-06T19:46:12.640Z,101545.59
2023-05-06T19:48:39.743Z,101541.64
2023-05-06T19:51:06.912Z,101541.11
2023-05-06T19:53:34.038Z,101544.20
2023-05-06T19:56:11.547Z,101544.84
2023-05-06T19:58:39.625Z,101548.21
2023-05-06T20:01:06.806Z,101548.29
2023-05-06T20:03:33.921Z,101550.43
2023-05-06T20:06:01.639Z,101550.29
2023-05-06T20:08:28.785Z,101550.36
2023-05-06T20:10:55.713Z,101549.87
2023-05-06T20:13:23.180Z,101546.21
2023-05-06T20:15:50.629Z,101545.71
2023-05-06T20:18:17.609Z,101546.61
2023-05-06T20:20:44.852Z,101548.05
2023-05-06T20:23:11.662Z,101545.61
2023-05-06T20:25:38.835Z,101540.08
2023-05-06T20:28:06.348Z,101545.10
2023-05-06T20:30:34.345Z,101545.33
2023-05-06T20:33:01.414Z,101548.63
2023-05-06T20:35:28.607Z,101552.27
2023-05-06T20:37:56.100Z,101549.48
2023-05-06T20:40:23.062Z,101546.58
2023-05-06T20:42:50.505Z,101549.03
2023-05-06T20:45:17.557Z,101557.59
2023-05-06T20:47:44.475Z,101557.38
2023-05-06T20:50:16.307Z,101558.41
2023-05-06T20:52:45.923Z,101560.64
2023-05-06T20:55:15.857Z,101566.19
2023-05-06T20:57:43.454Z,101564.30
2023-05-06T21:00:10.871Z,101568.61
2023-05-06T21:02:41.246Z,101567.52
2023-05-06T21:05:09.481Z,101565.23
2023-05-06T21:07:36.663Z,101565.79
2023-05-06T21:10:05.187Z,101564.20
2023-05-06T21:12:32.877Z,101567.05
2023-05-06T21:15:00.007Z,101566.32
2023-05-06T21:17:26.879Z,101565.38
2023-05-06T21:19:53.814Z,101565.81
2023-05-06T21:22:22.096Z,101560.16
2023-05-06T21:24:50.067Z,101561.97
2023-05-06T21:27:17.232Z,101561.04
2023-05-06T21:29:44.045Z,101559.41
2023-05-06T21:32:11.422Z,101564.29
2023-05-06T21:34:38.293Z,101562.89
2023-05-06T21:37:06.369Z,101565.81
2023-05-06T21:39:33.252Z,101569.75
2023-05-06T21:42:00.235Z,101580.81
2023-05-06T21:44:26.952Z,101580.81
2023-05-06T21:46:54.148Z,101578.76
2023-05-06T21:49:21.942Z,101582.74
2023-05-06T21:51:48.825Z,101582.03
2023-05-06T21:54:16.810Z,101584.48
2023-05-06T21:56:44.120Z,101582.52
2023-05-06T21:59:11.516Z,101585.91
2023-05-06T22:01:38.426Z,101583.23
2023-05-06T22:04:10.381Z,101586.80
2023-05-06T22:06:37.234Z,101580.13
2023-05-06T22:09:08.521Z,101580.19
2023-05-06T22:11:37.126Z,101580.32
2023-05-06T22:14:05.939Z,101584.66
2023-05-06T22:16:35.151Z,101585.32
2023-05-06T22:19:03.653Z,101578.09
2023-05-06T22:21:34.171Z,101580.40
2023-05-06T22:24:01.036Z,101587.25
2023-05-06T22:26:28.130Z,101588.22
2023-05-06T22:28:55.636Z,101581.52
2023-05-06T22:31:24.013Z,101584.33
2023-05-06T22:33:57.142Z,101583.16
2023-05-06T22:36:28.524Z,101583.28
2023-05-06T22:38:55.933Z,101580.77
2023-05-06T22:41:23.450Z,101585.45
2023-05-06T22:43:50.359Z,101588.20
2023-05-06T22:46:17.705Z,101581.00
2023-05-06T22:48:45.722Z,101581.73
2023-05-06T22:51:15.409Z,101577.81
2023-05-06T22:53:42.378Z,101572.64
2023-05-06T22:56:09.150Z,101569.08
2023-05-06T22:58:37.207Z,101568.98
2023-05-06T23:01:04.219Z,101569.78
2023-05-06T23:03:32.365Z,101567.32
2023-05-06T23:05:59.543Z,101569.89
2023-05-06T23:08:26.612Z,101571.60
2023-05-06T23:10:53.489Z,101573.27
2023-05-06T23:13:20.719Z,101572.02
2023-05-06T23:15:47.933Z,101572.10
2023-05-06T23:18:15.043Z,101572.39
2023-05-06T23:20:41.893Z,101570.43
2023-05-06T23:23:10.465Z,101569.02
2023-05-06T23:25:37.612Z,101573.65
2023-05-06T23:28:04.706Z,101572.54
2023-05-06T23:30:32.084Z,101570.73
2023-05-06T23:32:59.024Z,101571.70
2023-05-06T23:35:26.277Z,101572.61
2023-05-06T23:37:53.098Z,101576.71
2023-05-06T23:40:20.288Z,101574.00
2023-05-06T23:42:47.380Z,101578.27
2023-05-06T23:45:14.395Z,101577.17
2023-05-06T23:47:41.217Z,101577.12
2023-05-06T23:50:08.613Z,101578.41
2023-05-06T23:52:37.664Z,101580.33
2023-05-06T23:55:05.195Z,101578.33
2023-05-06T23:57:32.352Z,101576.30
